createdAt,value
2023-03-13T00:01:17.497Z,4.20
2023-03-13T00:03:46.023Z,3.65
2023-03-13T00:06:14.586Z,3.47
2023-03-13T00:08:44.840Z,3.53
2023-03-13T00:11:15.356Z,3.20
2023-03-13T00:13:44.462Z,3.55
2023-03-13T00:16:16.082Z,2.83
2023-03-13T00:18:47.338Z,3.83
2023-03-13T00:21:15.852Z,3.08
2023-03-13T00:23:44.199Z,3.15
2023-03-13T00:26:14.167Z,2.92
2023-03-13T00:28:45.800Z,3.47
2023-03-13T00:31:17.655Z,3.00
2023-03-13T00:33:48.000Z,3.33
2023-03-13T00:36:17.768Z,3.35
2023-03-13T00:38:46.409Z,3.67
2023-03-13T00:41:16.482Z,2.90
2023-03-13T00:43:46.011Z,2.42
2023-03-13T00:46:17.665Z,2.50
2023-03-13T00:48:46.680Z,2.47
2023-03-13T00:51:16.078Z,2.25
2023-03-13T00:53:44.400Z,2.25
2023-03-13T00:56:14.352Z,2.35
2023-03-13T00:58:43.913Z,2.47
2023-03-13T01:01:13.677Z,2.30
2023-03-13T01:03:45.471Z,1.80
2023-03-13T01:06:16.525Z,1.70
2023-03-13T01:08:45.050Z,2.28
2023-03-13T01:11:15.494Z,2.28
2023-03-13T01:13:44.298Z,2.40
2023-03-13T01:16:14.311Z,2.35
2023-03-13T01:18:46.265Z,2.38
2023-03-13T01:21:16.443Z,2.30
2023-03-13T01:23:44.904Z,2.05
2023-03-13T01:26:14.047Z,2.70
2023-03-13T01:28:42.750Z,2.00
2023-03-13T01:31:14.866Z,2.22
2023-03-13T01:33:44.651Z,2.38
2023-03-13T01:36:13.525Z,2.80
2023-03-13T01:38:42.505Z,2.08
2023-03-13T01:41:13.625Z,2.35
2023-03-13T01:43:41.940Z,2.58
2023-03-13T01:46:16.635Z,2.10
2023-03-13T01:48:50.812Z,2.40
2023-03-13T01:51:23.898Z,2.33
2023-03-13T01:53:57.696Z,2.40
2023-03-13T01:56:31.570Z,2.40
2023-03-13T01:59:01.057Z,2.72
2023-03-13T02:01:30.207Z,2.92
2023-03-13T02:04:00.449Z,2.53
2023-03-13T02:06:31.496Z,2.17
2023-03-13T02:09:05.599Z,2.20
2023-03-13T02:11:47.174Z,2.00
2023-03-13T02:14:16.693Z,2.92
2023-03-13T02:16:47.873Z,2.30
2023-03-13T02:19:25.930Z,2.53
2023-03-13T02:22:01.765Z,2.85
2023-03-13T02:24:34.799Z,2.80
2023-03-13T02:27:05.246Z,2.72
2023-03-13T02:29:33.804Z,2.53
2023-03-13T02:32:02.113Z,2.75
2023-03-13T02:34:33.966Z,2.58
2023-03-13T02:37:05.809Z,2.50
2023-03-13T02:39:35.725Z,2.95
2023-03-13T02:42:06.009Z,2.40
2023-03-13T02:44:40.206Z,2.70
2023-03-13T02:47:09.859Z,2.72
2023-03-13T02:49:38.357Z,2.55
2023-03-13T02:52:14.177Z,3.10
2023-03-13T02:54:44.746Z,3.00
2023-03-13T02:57:14.484Z,2.78
2023-03-13T02:59:42.967Z,3.17
2023-03-13T03:02:11.264Z,2.80
2023-03-13T03:04:39.614Z,3.42
2023-03-13T03:07:07.784Z,2.90
2023-03-13T03:09:36.244Z,2.33
2023-03-13T03:12:04.644Z,2.20
2023-03-13T03:14:34.519Z,2.88
2023-03-13T03:17:02.871Z,2.70
2023-03-13T03:19:31.234Z,2.65
2023-03-13T03:21:59.491Z,3.10
2023-03-13T03:24:28.227Z,2.90
2023-03-13T03:26:56.691Z,3.20
2023-03-13T03:29:25.077Z,2.50
2023-03-13T03:31:55.127Z,3.00
2023-03-13T03:34:23.989Z,3.03
2023-03-13T03:36:52.477Z,2.90
2023-03-13T03:39:20.793Z,3.35
2023-03-13T03:41:49.092Z,3.00
2023-03-13T03:44:17.285Z,3.40
2023-03-13T03:46:45.591Z,2.88
2023-03-13T03:49:15.276Z,3.55
2023-03-13T03:51:43.634Z,2.65
2023-03-13T03:54:11.908Z,3.15
2023-03-13T03:56:40.203Z,2.67
2023-03-13T03:59:08.569Z,3.33
2023-03-13T04:01:36.878Z,3.35
2023-03-13T04:04:05.062Z,2.75
2023-03-13T04:06:34.760Z,3.42
2023-03-13T04:09:02.976Z,2.47
2023-03-13T04:11:31.313Z,3.00
2023-03-13T04:13:59.572Z,3.25
2023-03-13T04:16:28.010Z,2.92
2023-03-13T04:18:56.270Z,3.10
2023-03-13T04:21:24.589Z,2.85
2023-03-13T04:23:54.458Z,3.47
2023-03-13T04:26:22.836Z,2.60
2023-03-13T04:28:51.190Z,3.15
2023-03-13T04:31:22.694Z,2.45
2023-03-13T04:33:51.040Z,2.35
2023-03-13T04:36:19.322Z,2.72
2023-03-13T04:38:47.723Z,2.28
2023-03-13T04:41:17.632Z,3.20
2023-03-13T04:43:45.974Z,1.73
2023-03-13T04:46:14.518Z,2.17
2023-03-13T04:48:42.908Z,2.13
2023-03-13T04:51:11.711Z,2.00
2023-03-13T04:53:39.922Z,2.38
2023-03-13T04:56:08.713Z,2.55
2023-03-13T04:58:38.415Z,1.95
2023-03-13T05:01:06.920Z,2.00
2023-03-13T05:03:35.187Z,2.38
2023-03-13T05:06:03.469Z,2.03
2023-03-13T05:08:31.731Z,2.38
2023-03-13T05:11:00.007Z,2.60
2023-03-13T05:13:28.243Z,2.47
2023-03-13T05:15:58.160Z,2.75
2023-03-13T05:18:26.605Z,3.13
2023-03-13T05:20:54.956Z,2.03
2023-03-13T05:23:23.378Z,2.60
2023-03-13T05:25:51.790Z,2.42
2023-03-13T05:28:20.092Z,2.35
2023-03-13T05:30:48.364Z,3.13
2023-03-13T05:33:19.574Z,2.13
2023-03-13T05:35:48.313Z,2.00
2023-03-13T05:38:16.841Z,2.67
2023-03-13T05:40:45.169Z,2.10
2023-03-13T05:43:13.387Z,2.75
2023-03-13T05:45:41.664Z,2.08
2023-03-13T05:48:09.911Z,3.05
2023-03-13T05:50:39.724Z,1.80
2023-03-13T05:53:08.144Z,2.20
2023-03-13T05:55:36.480Z,2.58
2023-03-13T05:58:04.976Z,2.05
2023-03-13T06:00:33.564Z,2.25
2023-03-13T06:03:01.888Z,2.20
2023-03-13T06:05:30.229Z,2.10
2023-03-13T06:08:00.214Z,2.33
2023-03-13T06:10:30.003Z,2.63
2023-03-13T06:13:03.137Z,2.10
2023-03-13T06:15:36.293Z,2.00
2023-03-13T06:18:04.965Z,2.65
2023-03-13T06:20:33.689Z,2.55
2023-03-13T06:23:03.666Z,2.30
2023-03-13T06:25:31.912Z,2.00
2023-03-13T06:28:00.490Z,1.95
2023-03-13T06:30:29.150Z,2.35
2023-03-13T06:32:57.609Z,2.25
2023-03-13T06:35:26.186Z,2.13
2023-03-13T06:37:57.394Z,2.10
2023-03-13T06:40:27.384Z,2.50
2023-03-13T06:42:55.596Z,3.28
2023-03-13T06:45:23.840Z,2.20
2023-03-13T06:47:52.548Z,2.78
2023-03-13T06:50:20.930Z,2.40
2023-03-13T06:52:49.498Z,2.63
2023-03-13T06:55:17.973Z,2.33
2023-03-13T06:57:51.578Z,2.70
2023-03-13T07:00:21.409Z,3.42
2023-03-13T07:02:49.617Z,2.20
2023-03-13T07:05:18.426Z,2.25
2023-03-13T07:07:46.775Z,3.20
2023-03-13T07:10:15.281Z,3.13
2023-03-13T07:12:44.685Z,2.60
2023-03-13T07:15:14.789Z,2.95
2023-03-13T07:17:43.403Z,2.40
2023-03-13T07:20:13.102Z,2.63
2023-03-13T07:22:41.785Z,2.30
2023-03-13T07:25:11.095Z,1.88
2023-03-13T07:27:39.396Z,2.45
2023-03-13T07:30:08.832Z,2.67
2023-03-13T07:32:38.618Z,2.47
2023-03-13T07:35:07.918Z,2.20
2023-03-13T07:37:36.287Z,2.35
2023-03-13T07:40:05.948Z,1.80
2023-03-13T07:42:34.486Z,2.60
2023-03-13T07:45:02.891Z,2.58
2023-03-13T07:47:31.391Z,2.55
2023-03-13T07:50:01.423Z,3.35
2023-03-13T07:52:31.782Z,3.10
2023-03-13T07:55:00.278Z,2.53
2023-03-13T07:57:28.647Z,2.08
2023-03-13T07:59:56.938Z,2.30
2023-03-13T08:02:25.317Z,2.05
2023-03-13T08:04:54.381Z,1.92
2023-03-13T08:07:24.192Z,2.25
2023-03-13T08:09:52.809Z,2.05
2023-03-13T08:12:22.599Z,1.73
2023-03-13T08:14:50.982Z,1.83
2023-03-13T08:17:21.256Z,1.83
2023-03-13T08:19:49.564Z,1.77
2023-03-13T08:22:18.010Z,1.58
2023-03-13T08:24:47.787Z,2.00
2023-03-13T08:27:16.022Z,1.83
2023-03-13T08:29:44.485Z,1.88
2023-03-13T08:32:13.136Z,2.33
2023-03-13T08:34:41.609Z,1.65
2023-03-13T08:37:10.017Z,1.80
2023-03-13T08:39:38.799Z,1.50
2023-03-13T08:42:09.679Z,1.90
2023-03-13T08:44:37.962Z,1.80
2023-03-13T08:47:07.896Z,1.80
2023-03-13T08:49:36.387Z,1.90
2023-03-13T08:52:06.355Z,2.15
2023-03-13T09:11:54.460Z,2.53
2023-03-13T09:14:23.761Z,2.38
2023-03-13T10:12:25.713Z,3.63
2023-03-13T10:22:38.198Z,3.28
2023-03-13T10:30:23.239Z,3.58
2023-03-13T10:38:05.249Z,3.83
2023-03-13T18:11:49.812Z,2.22
2023-03-13T18:14:18.385Z,2.35
2023-03-13T18:16:51.136Z,2.50
2023-03-13T18:19:22.465Z,2.72
2023-03-13T18:21:52.853Z,2.72
2023-03-13T18:24:21.120Z,3.05
2023-03-13T18:26:50.760Z,2.85
2023-03-13T18:29:26.326Z,3.88
2023-03-13T18:31:58.801Z,2.58
2023-03-13T18:34:27.997Z,3.35
2023-03-13T18:36:57.301Z,2.95
2023-03-13T18:39:25.680Z,3.40
2023-03-13T18:41:54.165Z,3.08
2023-03-13T18:44:23.136Z,3.03
2023-03-13T18:46:53.083Z,3.08
2023-03-13T18:49:25.005Z,2.60
2023-03-13T18:51:54.397Z,3.22
2023-03-13T18:54:22.723Z,2.95
2023-03-13T18:56:51.002Z,3.30
2023-03-13T18:59:21.486Z,3.25
2023-03-13T19:01:51.253Z,3.22
2023-03-13T19:04:20.798Z,2.97
2023-03-13T19:06:50.860Z,2.78
2023-03-13T19:09:42.279Z,3.10
2023-03-13T19:12:09.714Z,3.20
2023-03-13T19:14:38.055Z,3.38
2023-03-13T19:17:08.103Z,2.60
2023-03-13T19:19:36.374Z,3.30
2023-03-13T19:22:06.125Z,3.33
2023-03-13T19:24:34.416Z,3.42
2023-03-13T19:27:02.849Z,3.65
2023-03-13T19:29:33.846Z,3.47
2023-03-13T19:32:05.249Z,3.70
2023-03-13T19:34:33.692Z,3.92
2023-03-13T19:37:02.143Z,3.55
2023-03-13T19:39:31.974Z,3.15
2023-03-13T19:42:00.428Z,2.97
2023-03-13T19:44:29.515Z,3.25
2023-03-13T19:46:57.815Z,3.30
2023-03-13T19:49:26.381Z,3.17
2023-03-13T19:51:54.771Z,2.63
2023-03-13T19:54:24.449Z,3.58
2023-03-13T19:56:54.586Z,3.60
2023-03-13T19:59:26.752Z,3.15
2023-03-13T20:01:55.936Z,3.78
2023-03-13T20:04:25.316Z,3.67
2023-03-13T20:06:53.629Z,2.85
2023-03-13T20:09:23.261Z,3.30
2023-03-13T20:11:51.578Z,3.70
2023-03-13T20:14:21.336Z,2.80
2023-03-13T20:16:52.073Z,3.58
2023-03-13T20:19:21.623Z,3.50
2023-03-13T20:21:49.793Z,2.88
2023-03-13T20:24:18.163Z,3.47
2023-03-13T20:26:46.431Z,3.05
2023-03-13T20:29:14.788Z,3.63
2023-03-13T20:31:44.675Z,2.78
2023-03-13T20:34:13.216Z,3.70
2023-03-13T20:36:41.506Z,3.33
2023-03-13T20:39:09.751Z,3.42
2023-03-13T20:41:38.322Z,2.78
2023-03-13T20:44:06.873Z,3.00
2023-03-13T20:46:35.413Z,3.47
2023-03-13T20:49:05.473Z,3.08
2023-03-13T20:51:34.711Z,3.30
2023-03-13T20:54:03.168Z,3.60
2023-03-13T20:56:31.623Z,3.30
2023-03-13T20:59:00.054Z,3.13
2023-03-13T21:01:30.344Z,3.15
2023-03-13T21:03:59.407Z,2.65
2023-03-13T21:06:30.493Z,3.65
2023-03-13T21:08:58.806Z,2.92
2023-03-13T21:11:27.130Z,2.50
2023-03-13T21:13:55.351Z,3.60
2023-03-13T21:16:23.712Z,4.00
2023-03-13T21:18:52.024Z,4.03
2023-03-13T21:21:22.540Z,2.97
2023-03-13T21:23:53.315Z,3.80
2023-03-13T21:26:22.616Z,3.05
2023-03-13T21:28:53.027Z,3.25
2023-03-13T21:31:21.468Z,3.13
2023-03-13T21:33:50.162Z,2.90
2023-03-13T21:36:21.022Z,3.58
2023-03-13T21:38:49.900Z,3.60
2023-03-13T21:41:21.825Z,3.33
2023-03-13T21:43:50.598Z,3.85
2023-03-13T21:46:20.008Z,3.70
2023-03-13T21:48:48.323Z,3.20
2023-03-13T21:51:16.923Z,2.72
2023-03-13T21:53:45.666Z,3.35
2023-03-13T21:56:15.932Z,3.33
2023-03-13T21:58:46.708Z,2.78
2023-03-13T22:01:16.105Z,3.03
2023-03-13T22:03:44.445Z,3.50
2023-03-13T22:06:17.077Z,3.10
2023-03-13T22:08:45.548Z,3.38
2023-03-13T22:11:14.080Z,3.25
2023-03-13T22:13:42.597Z,2.55
2023-03-13T22:16:12.565Z,3.53
2023-03-13T22:18:41.950Z,2.70
2023-03-13T22:21:10.273Z,3.40
2023-03-13T22:23:38.660Z,3.35
2023-03-13T22:26:07.576Z,4.00
2023-03-13T22:28:35.859Z,4.03
2023-03-13T22:31:05.936Z,4.03
2023-03-13T22:33:36.061Z,3.30
2023-03-13T22:36:05.491Z,3.47
2023-03-13T22:38:38.851Z,3.13
2023-03-13T22:41:09.283Z,3.83
2023-03-13T22:43:37.528Z,3.33
2023-03-13T22:46:07.248Z,3.75
2023-03-13T22:48:38.074Z,3.58
2023-03-13T22:51:09.188Z,2.90
2023-03-13T22:53:39.301Z,3.35
2023-03-13T22:56:10.501Z,3.28
2023-03-13T22:58:39.586Z,2.92
2023-03-13T23:01:08.655Z,3.10
2023-03-13T23:03:38.583Z,3.53
2023-03-13T23:06:08.089Z,3.53
2023-03-13T23:08:37.090Z,2.88
2023-03-13T23:11:05.920Z,3.10
2023-03-13T23:13:34.079Z,2.83
2023-03-13T23:16:07.901Z,2.85
2023-03-13T23:18:38.439Z,2.83
2023-03-13T23:21:10.380Z,3.05
2023-03-13T23:23:38.945Z,3.05
2023-03-13T23:26:09.595Z,2.88
2023-03-13T23:28:39.178Z,2.78
2023-03-13T23:31:13.038Z,3.30
2023-03-13T23:33:43.652Z,3.17
2023-03-13T23:36:17.631Z,3.38
2023-03-13T23:38:49.313Z,2.97
2023-03-13T23:41:17.573Z,2.65
2023-03-13T23:43:45.956Z,2.70
2023-03-13T23:46:18.221Z,2.45
2023-03-13T23:48:48.448Z,2.80
2023-03-13T23:51:16.810Z,3.10
2023-03-13T23:53:45.590Z,2.97
2023-03-13T23:56:14.613Z,2.83
2023-03-13T23:58:43.340Z,2.70
